Cervia Air Force Base

Jump to: basic info | weather | frequencies | runways | comments

Related pages: nearby airports | nearby navaids | notams | map

Basic information (top)

Codes: LIPC
Location: lon 44.224201, lat 12.307200, elev 18 ft / 5 m msl
Status: medium_airport
Scheduled airline service: no
Links: Wikipedia Mobile

Weather (top)

Current conditions (rec'd 2014/07/29 21:55Z):

LIPC 292155Z 30005KT 9999 -RA FEW045 BKN050 21/19 Q1006 RMK OVC VIS MIN 9999 WIND THR11 29004KT BLU

Airport forecast (rec'd 2013/12/14 06:24Z):

TAF LIPC 140500Z 1406/1418 VRB03KT 5000 BR NSC 
      TEMPO 1406/1409 0500 BCFG SCT001

Frequencies (top)

Verify before use: may be inaccurate or out of date.

APP: 36.23 MHz (ROMAGNA APP)
APP: 118.15 MHz (ROMAGNA APP)
TWR: 122.1 MHz (TWR)

Runways (top)

12/30: 10,007 x 148 ft (3,050 x 45 m) — paved — lighted — threshold 12 displaced 389 ft (119 m) — threshold 30 displaced 377 ft (115 m)

Latest comments (top)

ONLY MILITARY TRAFFIC ALLOWED: ONLY MILITARY TRAFFIC ALLOWED, IT.A.F. AIR BASE. [read]

More... (top)

See also NOTAMs and nearby airports and navaids, or visit the Cervia Air Force Base page at the main OurAirports website..